Back to Top

Language: 

My Weather Underground Personal Weather Station Historical Data with Graphs...

Delerius Weather Station Historical Data
Daily Summary for August 5, 2017 Units:  English    Metric   Both
« Previous Day
Next Day »
Daily Weekly Monthly Yearly Custom
  High: Low: Average:
Temperature: 68.7 °F 49.8 °F 59.8 °F
Dew Point: 52.1 °F 46.0 °F 48.8 °F
Humidity: 94 % 45 % 69 %
Wind Speed: 15.0 mph 0.0 mph 7.8 mph
Wind Gust: 26.0 mph - -
Wind:- - WNW
Pressure: 30.09 in 29.90 in -
Precipitation: 0.00 in    
Historical Graphs
 
 
Tabular Data for August 5, 2017
Time Temperature Dew Point Pressure Wind Wind Speed Wind Gust Humidity Rainfall Rate (Hourly) solar Conditions
00:03 54.1 °F 50.0 °F 29.90 in WNW 4.0 mph 7.0 mph 86 % 0.00 in 0 W/m2
00:08 54.1 °F 50.0 °F 29.90 in WNW 3.0 mph 7.0 mph 86 % 0.00 in 0 W/m2
00:13 54.1 °F 50.0 °F 29.90 in WNW 3.0 mph 7.0 mph 86 % 0.00 in 0 W/m2
00:18 54.1 °F 50.4 °F 29.91 in WNW 3.0 mph 7.0 mph 87 % 0.00 in 0 W/m2
00:23 54.0 °F 50.2 °F 29.91 in WNW 4.0 mph 9.0 mph 87 % 0.00 in 0 W/m2
00:28 54.0 °F 50.2 °F 29.90 in WNW 4.0 mph 9.0 mph 87 % 0.00 in 0 W/m2
00:33 54.0 °F 50.5 °F 29.90 in WNW 4.0 mph 8.0 mph 88 % 0.00 in 0 W/m2
00:38 54.0 °F 50.5 °F 29.90 in WNW 4.0 mph 8.0 mph 88 % 0.00 in 0 W/m2
00:43 53.8 °F 50.3 °F 29.90 in WNW 5.0 mph 8.0 mph 88 % 0.00 in 0 W/m2
00:48 53.8 °F 50.3 °F 29.90 in WNW 5.0 mph 8.0 mph 88 % 0.00 in 0 W/m2
00:53 53.8 °F 50.3 °F 29.90 in WNW 5.0 mph 8.0 mph 88 % 0.00 in 0 W/m2
00:58 53.8 °F 50.3 °F 29.90 in WNW 4.0 mph 7.0 mph 88 % 0.00 in 0 W/m2
01:03 53.8 °F 50.3 °F 29.90 in WNW 4.0 mph 8.0 mph 88 % 0.00 in 0 W/m2
01:08 53.8 °F 50.3 °F 29.90 in WNW 5.0 mph 8.0 mph 88 % 0.00 in 0 W/m2
01:13 53.8 °F 50.6 °F 29.90 in WNW 5.0 mph 8.0 mph 89 % 0.00 in 0 W/m2
01:18 53.8 °F 50.3 °F 29.90 in WNW 5.0 mph 8.0 mph 88 % 0.00 in 0 W/m2
01:23 53.8 °F 50.3 °F 29.90 in WNW 5.0 mph 7.0 mph 88 % 0.00 in 0 W/m2
01:28 53.8 °F 50.3 °F 29.90 in WNW 5.0 mph 7.0 mph 88 % 0.00 in 0 W/m2
01:33 53.8 °F 50.3 °F 29.90 in WNW 4.0 mph 6.0 mph 88 % 0.00 in 0 W/m2
01:38 53.6 °F 50.4 °F 29.90 in WNW 4.0 mph 7.0 mph 89 % 0.00 in 0 W/m2
01:43 53.6 °F 50.4 °F 29.90 in WNW 5.0 mph 7.0 mph 89 % 0.00 in 0 W/m2
01:49 53.6 °F 50.4 °F 29.90 in NW 5.0 mph 7.0 mph 89 % 0.00 in 0 W/m2
01:54 53.6 °F 50.4 °F 29.90 in NW 4.0 mph 7.0 mph 89 % 0.00 in 0 W/m2
01:59 53.4 °F 50.3 °F 29.90 in NW 4.0 mph 8.0 mph 89 % 0.00 in 0 W/m2
02:04 53.4 °F 50.3 °F 29.90 in NW 4.0 mph 8.0 mph 89 % 0.00 in 0 W/m2
02:09 53.4 °F 50.3 °F 29.90 in NW 4.0 mph 8.0 mph 89 % 0.00 in 0 W/m2
02:14 53.4 °F 50.3 °F 29.90 in NW 4.0 mph 7.0 mph 89 % 0.00 in 0 W/m2
02:19 53.4 °F 50.6 °F 29.90 in WNW 4.0 mph 7.0 mph 90 % 0.00 in 0 W/m2
02:24 53.2 °F 50.4 °F 29.90 in WNW 3.0 mph 7.0 mph 90 % 0.00 in 0 W/m2
02:29 53.2 °F 50.4 °F 29.90 in NW 3.0 mph 6.0 mph 90 % 0.00 in 0 W/m2
02:34 53.2 °F 50.4 °F 29.90 in NW 3.0 mph 6.0 mph 90 % 0.00 in 0 W/m2
02:39 53.1 °F 50.2 °F 29.90 in NW 4.0 mph 7.0 mph 90 % 0.00 in 0 W/m2
02:44 53.1 °F 50.2 °F 29.90 in NW 4.0 mph 7.0 mph 90 % 0.00 in 0 W/m2
02:49 53.1 °F 50.2 °F 29.90 in NW 4.0 mph 7.0 mph 90 % 0.00 in 0 W/m2
02:54 53.1 °F 50.2 °F 29.90 in WNW 4.0 mph 7.0 mph 90 % 0.00 in 0 W/m2
02:59 52.9 °F 50.0 °F 29.90 in WNW 4.0 mph 6.0 mph 90 % 0.00 in 0 W/m2
03:04 52.9 °F 50.0 °F 29.90 in WNW 4.0 mph 6.0 mph 90 % 0.00 in 0 W/m2
03:09 52.9 °F 50.0 °F 29.90 in WNW 3.0 mph 6.0 mph 90 % 0.00 in 0 W/m2
03:14 52.7 °F 49.8 °F 29.90 in WNW 3.0 mph 5.0 mph 90 % 0.00 in 0 W/m2
03:19 52.7 °F 49.8 °F 29.90 in WNW 3.0 mph 6.0 mph 90 % 0.00 in 0 W/m2
03:24 52.5 °F 50.0 °F 29.90 in WNW 4.0 mph 8.0 mph 91 % 0.00 in 0 W/m2
03:29 52.7 °F 50.1 °F 29.90 in WNW 4.0 mph 8.0 mph 91 % 0.00 in 0 W/m2
03:34 52.5 °F 49.7 °F 29.90 in WNW 2.0 mph 6.0 mph 90 % 0.00 in 0 W/m2
03:39 52.5 °F 49.7 °F 29.91 in WNW 1.0 mph 3.0 mph 90 % 0.00 in 0 W/m2
03:44 52.3 °F 49.5 °F 29.91 in Calm   2.0 mph 90 % 0.00 in 0 W/m2
03:49 52.2 °F 49.3 °F 29.90 in WNW 1.0 mph 4.0 mph 90 % 0.00 in 0 W/m2
03:54 52.2 °F 49.3 °F 29.90 in WNW 2.0 mph 6.0 mph 90 % 0.00 in 0 W/m2
03:59 52.0 °F 49.4 °F 29.90 in WNW 3.0 mph 6.0 mph 91 % 0.00 in 0 W/m2
04:04 52.0 °F 49.4 °F 29.90 in WNW 2.0 mph 6.0 mph 91 % 0.00 in 0 W/m2
04:09 52.0 °F 49.4 °F 29.90 in WNW 3.0 mph 7.0 mph 91 % 0.00 in 0 W/m2
04:14 52.0 °F 49.4 °F 29.90 in WNW 4.0 mph 8.0 mph 91 % 0.00 in 0 W/m2
04:20 51.8 °F 49.3 °F 29.91 in NW 4.0 mph 8.0 mph 91 % 0.00 in 0 W/m2
04:25 51.8 °F 49.3 °F 29.91 in NW 5.0 mph 9.0 mph 91 % 0.00 in 0 W/m2
04:27 51.8 °F 49.3 °F 29.90 in WNW 5.0 mph 9.0 mph 91 % 0.00 in 0 W/m2
04:32 51.8 °F 49.3 °F 29.91 in WNW 5.0 mph 9.0 mph 91 % 0.00 in 0 W/m2
04:37 51.8 °F 49.3 °F 29.91 in WNW 3.0 mph 7.0 mph 91 % 0.00 in 0 W/m2
04:42 51.6 °F 49.1 °F 29.91 in WNW 2.0 mph 6.0 mph 91 % 0.00 in 0 W/m2
04:47 51.6 °F 49.1 °F 29.91 in WNW 1.0 mph 5.0 mph 91 % 0.00 in 0 W/m2
04:52 51.4 °F 48.9 °F 29.91 in WNW 1.0 mph 2.0 mph 91 % 0.00 in 0 W/m2
04:57 51.3 °F 48.7 °F 29.91 in WNW 1.0 mph 4.0 mph 91 % 0.00 in 0 W/m2
05:02 51.1 °F 48.5 °F 29.90 in WNW 2.0 mph 5.0 mph 91 % 0.00 in 0 W/m2
05:07 51.1 °F 48.8 °F 29.91 in WNW 2.0 mph 6.0 mph 92 % 0.00 in 0 W/m2
05:12 51.1 °F 48.8 °F 29.91 in WNW 2.0 mph 6.0 mph 92 % 0.00 in 0 W/m2
05:17 51.1 °F 48.8 °F 29.91 in WNW 1.0 mph 4.0 mph 92 % 0.00 in 0 W/m2
05:22 50.7 °F 48.5 °F 29.91 in WNW 1.0 mph 3.0 mph 92 % 0.00 in 0 W/m2
05:27 50.5 °F 48.0 °F 29.92 in Calm   1.0 mph 91 % 0.00 in 0 W/m2
05:32 50.5 °F 48.3 °F 29.92 in WNW 1.0 mph 4.0 mph 92 % 0.00 in 5 W/m2
05:37 50.4 °F 48.1 °F 29.91 in WNW 2.0 mph 4.0 mph 92 % 0.00 in 7 W/m2
05:42 50.4 °F 48.1 °F 29.91 in WNW 2.0 mph 5.0 mph 92 % 0.00 in 9 W/m2
05:47 50.4 °F 48.1 °F 29.92 in WNW 2.0 mph 5.0 mph 92 % 0.00 in 9 W/m2
05:52 50.2 °F 47.9 °F 29.91 in WNW 2.0 mph 5.0 mph 92 % 0.00 in 11 W/m2
05:57 50.2 °F 47.9 °F 29.92 in WNW 1.0 mph 5.0 mph 92 % 0.00 in 12 W/m2
06:02 50.2 °F 48.2 °F 29.92 in WNW 1.0 mph 3.0 mph 93 % 0.00 in 14 W/m2
06:07 50.0 °F 48.1 °F 29.92 in WNW 1.0 mph 3.0 mph 93 % 0.00 in 16 W/m2
06:12 49.8 °F 47.6 °F 29.92 in Calm   2.0 mph 92 % 0.00 in 18 W/m2
06:17 49.8 °F 47.9 °F 29.92 in WNW 1.0 mph 7.0 mph 93 % 0.00 in 19 W/m2
06:22 49.8 °F 47.9 °F 29.92 in WNW 3.0 mph 7.0 mph 93 % 0.00 in 21 W/m2
06:27 50.2 °F 48.5 °F 29.92 in WNW 5.0 mph 8.0 mph 94 % 0.00 in 51 W/m2
06:32 50.5 °F 48.9 °F 29.92 in WNW 5.0 mph 9.0 mph 94 % 0.00 in 28 W/m2
06:37 51.3 °F 49.6 °F 29.92 in WNW 6.0 mph 10.0 mph 94 % 0.00 in 111 W/m2
06:42 51.8 °F 50.1 °F 29.92 in WNW 5.0 mph 10.0 mph 94 % 0.00 in 123 W/m2
06:47 52.2 °F 50.2 °F 29.92 in WNW 4.0 mph 7.0 mph 93 % 0.00 in 132 W/m2
06:52 52.5 °F 50.6 °F 29.92 in WNW 4.0 mph 7.0 mph 93 % 0.00 in 144 W/m2
06:57 53.1 °F 51.1 °F 29.92 in WNW 4.0 mph 7.0 mph 93 % 0.00 in 156 W/m2
07:02 53.6 °F 51.3 °F 29.92 in WNW 5.0 mph 10.0 mph 92 % 0.00 in 163 W/m2
07:07 54.1 °F 51.6 °F 29.92 in WNW 6.0 mph 10.0 mph 91 % 0.00 in 176 W/m2
07:12 54.7 °F 51.8 °F 29.93 in WNW 6.0 mph 10.0 mph 90 % 0.00 in 190 W/m2
07:17 55.0 °F 51.5 °F 29.93 in West 6.0 mph 10.0 mph 88 % 0.00 in 206 W/m2
07:22 55.6 °F 52.1 °F 29.93 in WNW 5.0 mph 11.0 mph 88 % 0.00 in 220 W/m2
07:27 56.3 °F 51.8 °F 29.93 in WNW 6.0 mph 11.0 mph 85 % 0.00 in 234 W/m2
07:32 56.8 °F 51.7 °F 29.93 in WNW 8.0 mph 15.0 mph 83 % 0.00 in 246 W/m2
07:37 57.2 °F 51.8 °F 29.93 in WNW 8.0 mph 15.0 mph 82 % 0.00 in 258 W/m2
07:42 57.7 °F 51.6 °F 29.93 in WNW 8.0 mph 14.0 mph 80 % 0.00 in 269 W/m2
07:47 57.9 °F 51.4 °F 29.93 in WNW 8.0 mph 14.0 mph 79 % 0.00 in 285 W/m2
07:52 58.3 °F 51.4 °F 29.93 in WNW 8.0 mph 13.0 mph 78 % 0.00 in 297 W/m2
07:57 58.6 °F 51.4 °F 29.93 in WNW 8.0 mph 13.0 mph 77 % 0.00 in 313 W/m2
08:02 59.0 °F 51.1 °F 29.93 in WNW 8.0 mph 18.0 mph 75 % 0.00 in 327 W/m2
08:07 59.4 °F 51.4 °F 29.93 in WNW 8.0 mph 18.0 mph 75 % 0.00 in 338 W/m2
08:12 59.5 °F 51.2 °F 29.93 in WNW 8.0 mph 16.0 mph 74 % 0.00 in 369 W/m2
08:17 59.7 °F 51.4 °F 29.93 in WNW 7.0 mph 15.0 mph 74 % 0.00 in 369 W/m2
08:22 60.3 °F 51.2 °F 29.94 in WNW 8.0 mph 19.0 mph 72 % 0.00 in 387 W/m2
08:27 60.3 °F 50.8 °F 29.94 in WNW 10.0 mph 19.0 mph 71 % 0.00 in 399 W/m2
08:32 60.4 °F 51.0 °F 29.94 in West 9.0 mph 19.0 mph 71 % 0.00 in 418 W/m2
08:37 60.6 °F 51.2 °F 29.94 in WNW 9.0 mph 16.0 mph 71 % 0.00 in 427 W/m2
08:42 61.0 °F 51.1 °F 29.94 in WNW 10.0 mph 16.0 mph 70 % 0.00 in 445 W/m2
08:47 61.3 °F 51.1 °F 29.94 in WNW 10.0 mph 16.0 mph 69 % 0.00 in 464 W/m2
08:52 61.5 °F 50.9 °F 29.94 in WNW 9.0 mph 14.0 mph 68 % 0.00 in 485 W/m2
08:57 61.9 °F 50.8 °F 29.94 in WNW 8.0 mph 15.0 mph 67 % 0.00 in 489 W/m2
09:02 62.1 °F 50.6 °F 29.94 in NW 9.0 mph 19.0 mph 66 % 0.00 in 504 W/m2
09:07 62.2 °F 50.7 °F 29.94 in WNW 9.0 mph 19.0 mph 66 % 0.00 in 513 W/m2
09:12 62.1 °F 50.2 °F 29.95 in WNW 9.0 mph 18.0 mph 65 % 0.00 in 527 W/m2
09:17 62.4 °F 50.1 °F 29.95 in WNW 10.0 mph 20.0 mph 64 % 0.00 in 547 W/m2
09:22 62.6 °F 49.8 °F 29.94 in WNW 10.0 mph 23.0 mph 63 % 0.00 in 575 W/m2
09:27 62.4 °F 49.7 °F 29.95 in WNW 11.0 mph 23.0 mph 63 % 0.00 in 592 W/m2
09:32 62.8 °F 50.0 °F 29.95 in WNW 11.0 mph 21.0 mph 63 % 0.00 in 631 W/m2
09:38 62.8 °F 49.6 °F 29.95 in WNW 11.0 mph 18.0 mph 62 % 0.00 in 649 W/m2
09:43 63.0 °F 50.2 °F 29.95 in WNW 10.0 mph 18.0 mph 63 % 0.00 in 742 W/m2
09:48 63.1 °F 48.6 °F 29.95 in WNW 9.0 mph 19.0 mph 59 % 0.00 in 236 W/m2
09:53 63.0 °F 48.9 °F 29.95 in WNW 10.0 mph 21.0 mph 60 % 0.00 in 649 W/m2
09:58 63.3 °F 48.7 °F 29.95 in WNW 11.0 mph 21.0 mph 59 % 0.00 in 726 W/m2
10:03 63.5 °F 48.9 °F 29.95 in WNW 11.0 mph 20.0 mph 59 % 0.00 in 745 W/m2
10:08 63.7 °F 48.2 °F 29.96 in WNW 11.0 mph 20.0 mph 57 % 0.00 in 125 W/m2
10:13 63.7 °F 48.2 °F 29.95 in WNW 11.0 mph 20.0 mph 57 % 0.00 in 687 W/m2
10:18 63.9 °F 48.3 °F 29.95 in WNW 12.0 mph 18.0 mph 57 % 0.00 in 770 W/m2
10:23 64.0 °F 48.5 °F 29.95 in WNW 11.0 mph 18.0 mph 57 % 0.00 in 244 W/m2
10:28 63.7 °F 47.7 °F 29.96 in WNW 10.0 mph 22.0 mph 56 % 0.00 in 123 W/m2
10:33 63.9 °F 48.8 °F 29.96 in WNW 10.0 mph 22.0 mph 58 % 0.00 in 810 W/m2
10:38 64.2 °F 48.2 °F 29.96 in WNW 10.0 mph 20.0 mph 56 % 0.00 in 821 W/m2
10:43 64.8 °F 48.7 °F 29.96 in WNW 9.0 mph 16.0 mph 56 % 0.00 in 265 W/m2
10:48 65.1 °F 48.5 °F 29.95 in WNW 8.0 mph 16.0 mph 55 % 0.00 in 779 W/m2
10:53 64.9 °F 48.4 °F 29.96 in WNW 9.0 mph 18.0 mph 55 % 0.00 in 169 W/m2
10:58 64.4 °F 48.4 °F 29.96 in WNW 9.0 mph 18.0 mph 56 % 0.00 in 160 W/m2
11:03 63.7 °F 47.7 °F 29.96 in WNW 9.0 mph 16.0 mph 56 % 0.00 in 807 W/m2
11:08 63.9 °F 48.3 °F 29.96 in WNW 11.0 mph 18.0 mph 57 % 0.00 in 932 W/m2
11:13 64.0 °F 46.6 °F 29.96 in WNW 11.0 mph 18.0 mph 53 % 0.00 in 202 W/m2
11:18 64.4 °F 47.9 °F 29.96 in WNW 9.0 mph 18.0 mph 55 % 0.00 in 937 W/m2
11:23 64.6 °F 47.1 °F 29.96 in WNW 10.0 mph 21.0 mph 53 % 0.00 in 816 W/m2
11:28 64.6 °F 48.0 °F 29.96 in WNW 12.0 mph 21.0 mph 55 % 0.00 in 824 W/m2
11:33 64.9 °F 47.4 °F 29.96 in WNW 12.0 mph 20.0 mph 53 % 0.00 in 879 W/m2
11:38 65.5 °F 47.4 °F 29.96 in WNW 13.0 mph 23.0 mph 52 % 0.00 in 921 W/m2
11:43 65.7 °F 47.5 °F 29.96 in WNW 13.0 mph 23.0 mph 52 % 0.00 in 969 W/m2
11:48 65.8 °F 47.2 °F 29.96 in West 13.0 mph 24.0 mph 51 % 0.00 in 888 W/m2
11:53 66.0 °F 47.4 °F 29.96 in West 14.0 mph 24.0 mph 51 % 0.00 in 858 W/m2
11:58 65.8 °F 46.7 °F 29.95 in WNW 15.0 mph 24.0 mph 50 % 0.00 in 867 W/m2
12:03 65.8 °F 47.2 °F 29.95 in WNW 15.0 mph 24.0 mph 51 % 0.00 in 858 W/m2
12:08 66.4 °F 47.7 °F 29.96 in WNW 13.0 mph 22.0 mph 51 % 0.00 in 847 W/m2
12:13 66.7 °F 47.0 °F 29.96 in WNW 13.0 mph 25.0 mph 49 % 0.00 in 874 W/m2
12:18 66.7 °F 47.0 °F 29.96 in WNW 14.0 mph 26.0 mph 49 % 0.00 in 905 W/m2
12:24 66.9 °F 47.1 °F 29.96 in WNW 14.0 mph 26.0 mph 49 % 0.00 in 947 W/m2
12:29 66.9 °F 47.1 °F 29.96 in WNW 13.0 mph 23.0 mph 49 % 0.00 in 244 W/m2
12:34 66.7 °F 47.0 °F 29.96 in WNW 13.0 mph 24.0 mph 49 % 0.00 in 684 W/m2
12:39 66.4 °F 46.6 °F 29.96 in WNW 14.0 mph 24.0 mph 49 % 0.00 in 742 W/m2
12:44 66.4 °F 47.2 °F 29.96 in West 13.0 mph 23.0 mph 50 % 0.00 in 316 W/m2
12:49 65.7 °F 46.0 °F 29.96 in WNW 13.0 mph 22.0 mph 49 % 0.00 in 292 W/m2
12:54 65.5 °F 46.3 °F 29.96 in WNW 13.0 mph 22.0 mph 50 % 0.00 in 420 W/m2
12:59 65.5 °F 46.3 °F 29.96 in WNW 11.0 mph 20.0 mph 50 % 0.00 in 471 W/m2
13:04 65.7 °F 46.5 °F 29.97 in WNW 12.0 mph 23.0 mph 50 % 0.00 in 759 W/m2
13:09 65.7 °F 46.5 °F 29.97 in WNW 12.0 mph 23.0 mph 50 % 0.00 in 350 W/m2
13:14 66.0 °F 46.3 °F 29.97 in WNW 12.0 mph 22.0 mph 49 % 0.00 in 1016 W/m2
13:19 66.4 °F 47.7 °F 29.97 in West 12.0 mph 22.0 mph 51 % 0.00 in 875 W/m2
13:24 66.7 °F 47.5 °F 29.97 in West 13.0 mph 24.0 mph 50 % 0.00 in 793 W/m2
13:29 66.7 °F 47.5 °F 29.97 in West 13.0 mph 24.0 mph 50 % 0.00 in 547 W/m2
13:34 66.7 °F 47.0 °F 29.97 in West 12.0 mph 20.0 mph 49 % 0.00 in 722 W/m2
13:39 66.6 °F 47.9 °F 29.97 in West 11.0 mph 19.0 mph 51 % 0.00 in 343 W/m2
13:44 66.4 °F 47.2 °F 29.97 in West 11.0 mph 22.0 mph 50 % 0.00 in 956 W/m2
13:49 66.6 °F 46.8 °F 29.98 in West 13.0 mph 23.0 mph 49 % 0.00 in 853 W/m2
13:54 66.9 °F 47.1 °F 29.97 in WNW 13.0 mph 23.0 mph 49 % 0.00 in 842 W/m2
13:59 67.3 °F 48.0 °F 29.98 in WNW 12.0 mph 21.0 mph 50 % 0.00 in 893 W/m2
14:04 67.3 °F 47.5 °F 29.98 in West 11.0 mph 21.0 mph 49 % 0.00 in 881 W/m2
14:09 67.5 °F 48.2 °F 29.98 in West 11.0 mph 19.0 mph 50 % 0.00 in 346 W/m2
14:14 67.5 °F 48.2 °F 29.98 in West 11.0 mph 21.0 mph 50 % 0.00 in 364 W/m2
14:19 67.3 °F 46.9 °F 29.98 in WNW 12.0 mph 22.0 mph 48 % 0.00 in 313 W/m2
14:24 67.3 °F 47.5 °F 29.98 in WNW 12.0 mph 22.0 mph 49 % 0.00 in 993 W/m2
14:29 67.3 °F 47.5 °F 29.99 in WNW 13.0 mph 22.0 mph 49 % 0.00 in 1009 W/m2
14:34 67.3 °F 47.5 °F 29.98 in WNW 13.0 mph 21.0 mph 49 % 0.00 in 299 W/m2
14:39 67.5 °F 47.1 °F 29.99 in WNW 11.0 mph 22.0 mph 48 % 0.00 in 1007 W/m2
14:44 67.5 °F 46.5 °F 29.99 in WNW 12.0 mph 22.0 mph 47 % 0.00 in 223 W/m2
14:49 66.9 °F 47.1 °F 29.99 in WNW 11.0 mph 21.0 mph 49 % 0.00 in 216 W/m2
14:54 66.6 °F 46.8 °F 29.99 in WNW 10.0 mph 21.0 mph 49 % 0.00 in 1000 W/m2
14:55 66.6 °F 47.3 °F 29.99 in WNW 10.0 mph 21.0 mph 50 % 0.00 in 1000 W/m2
15:00 67.1 °F 47.8 °F 29.99 in WNW 10.0 mph 20.0 mph 50 % 0.00 in 311 W/m2
15:05 67.1 °F 46.7 °F 29.99 in WNW 11.0 mph 20.0 mph 48 % 0.00 in 276 W/m2
15:10 67.3 °F 47.5 °F 29.99 in West 12.0 mph 20.0 mph 49 % 0.00 in 926 W/m2
15:15 67.8 °F 46.8 °F 29.99 in West 13.0 mph 21.0 mph 47 % 0.00 in 919 W/m2
15:20 68.4 °F 47.9 °F 29.98 in WNW 11.0 mph 21.0 mph 48 % 0.00 in 860 W/m2
15:25 68.7 °F 47.7 °F 29.99 in WNW 10.0 mph 24.0 mph 47 % 0.00 in 784 W/m2
15:30 68.5 °F 46.3 °F 29.99 in WNW 12.0 mph 24.0 mph 45 % 0.00 in 802 W/m2
15:35 68.4 °F 46.2 °F 29.98 in West 13.0 mph 24.0 mph 45 % 0.00 in 802 W/m2
15:40 68.0 °F 46.4 °F 29.99 in WNW 12.0 mph 22.0 mph 46 % 0.00 in 821 W/m2
15:45 68.2 °F 46.6 °F 29.99 in WNW 12.0 mph 22.0 mph 46 % 0.00 in 798 W/m2
15:50 68.0 °F 47.6 °F 29.99 in West 13.0 mph 22.0 mph 48 % 0.00 in 809 W/m2
15:52 68.0 °F 47.6 °F 29.99 in West 14.0 mph 22.0 mph 48 % 0.00 in 246 W/m2
15:57 67.5 °F 47.1 °F 29.99 in West 13.0 mph 21.0 mph 48 % 0.00 in 369 W/m2
16:02 66.9 °F 47.1 °F 29.99 in WNW 12.0 mph 26.0 mph 49 % 0.00 in 367 W/m2
16:07 66.7 °F 48.0 °F 29.99 in WNW 13.0 mph 26.0 mph 51 % 0.00 in 462 W/m2
16:12 66.6 °F 48.4 °F 30.00 in West 12.0 mph 23.0 mph 52 % 0.00 in 726 W/m2
16:17 66.7 °F 48.5 °F 30.00 in West 12.0 mph 22.0 mph 52 % 0.00 in 691 W/m2
16:22 66.9 °F 48.2 °F 30.00 in West 12.0 mph 22.0 mph 51 % 0.00 in 691 W/m2
16:27 67.1 °F 47.8 °F 30.00 in West 13.0 mph 25.0 mph 50 % 0.00 in 708 W/m2
16:32 67.3 °F 47.5 °F 30.00 in West 14.0 mph 25.0 mph 49 % 0.00 in 671 W/m2
16:35 67.5 °F 47.6 °F 30.00 in West 14.0 mph 25.0 mph 49 % 0.00 in 656 W/m2
16:40 67.6 °F 47.8 °F 30.00 in WNW 14.0 mph 25.0 mph 49 % 0.00 in 631 W/m2
16:45 67.8 °F 48.0 °F 30.00 in WNW 13.0 mph 25.0 mph 49 % 0.00 in 608 W/m2
16:50 67.6 °F 47.2 °F 30.00 in WNW 13.0 mph 23.0 mph 48 % 0.00 in 587 W/m2
16:55 67.3 °F 47.5 °F 30.00 in WNW 13.0 mph 23.0 mph 49 % 0.00 in 357 W/m2
17:00 67.5 °F 48.2 °F 30.00 in WNW 11.0 mph 19.0 mph 50 % 0.00 in 671 W/m2
17:05 67.8 °F 47.4 °F 30.00 in WNW 12.0 mph 25.0 mph 48 % 0.00 in 610 W/m2
17:07 68.0 °F 47.0 °F 30.00 in WNW 12.0 mph 25.0 mph 47 % 0.00 in 598 W/m2
17:12 67.8 °F 47.4 °F 30.00 in West 13.0 mph 25.0 mph 48 % 0.00 in 538 W/m2
17:17 67.6 °F 46.7 °F 30.00 in West 13.0 mph 21.0 mph 47 % 0.00 in 496 W/m2
17:23 67.3 °F 46.4 °F 30.00 in West 13.0 mph 25.0 mph 47 % 0.00 in 487 W/m2
17:28 67.3 °F 46.9 °F 30.01 in WNW 12.0 mph 25.0 mph 48 % 0.00 in 464 W/m2
17:33 67.3 °F 46.9 °F 30.01 in WNW 11.0 mph 21.0 mph 48 % 0.00 in 445 W/m2
17:38 67.5 °F 47.6 °F 30.01 in WNW 10.0 mph 19.0 mph 49 % 0.00 in 454 W/m2
17:43 67.3 °F 47.5 °F 30.01 in WNW 10.0 mph 19.0 mph 49 % 0.00 in 443 W/m2
17:48 67.5 °F 47.6 °F 30.01 in WNW 10.0 mph 19.0 mph 49 % 0.00 in 443 W/m2
17:53 67.5 °F 47.6 °F 30.01 in WNW 10.0 mph 19.0 mph 49 % 0.00 in 446 W/m2
17:58 67.3 °F 48.0 °F 30.01 in WNW 10.0 mph 19.0 mph 50 % 0.00 in 190 W/m2
18:03 66.7 °F 48.0 °F 30.01 in WNW 10.0 mph 20.0 mph 51 % 0.00 in 185 W/m2
18:08 66.4 °F 47.7 °F 30.01 in WNW 12.0 mph 23.0 mph 51 % 0.00 in 156 W/m2
18:13 65.8 °F 48.2 °F 30.02 in WNW 11.0 mph 23.0 mph 53 % 0.00 in 111 W/m2
18:18 65.5 °F 48.4 °F 30.02 in WNW 8.0 mph 16.0 mph 54 % 0.00 in 381 W/m2
18:23 65.5 °F 48.9 °F 30.02 in WNW 8.0 mph 18.0 mph 55 % 0.00 in 329 W/m2
18:28 65.7 °F 49.0 °F 30.02 in WNW 10.0 mph 19.0 mph 55 % 0.00 in 316 W/m2
18:33 65.7 °F 48.6 °F 30.02 in WNW 10.0 mph 23.0 mph 54 % 0.00 in 297 W/m2
18:38 65.7 °F 47.5 °F 30.02 in WNW 12.0 mph 23.0 mph 52 % 0.00 in 292 W/m2
18:43 65.5 °F 48.4 °F 30.02 in WNW 12.0 mph 20.0 mph 54 % 0.00 in 267 W/m2
18:48 65.3 °F 47.7 °F 30.02 in WNW 11.0 mph 19.0 mph 53 % 0.00 in 250 W/m2
18:53 65.1 °F 48.1 °F 30.02 in WNW 11.0 mph 20.0 mph 54 % 0.00 in 239 W/m2
18:58 64.9 °F 47.9 °F 30.03 in WNW 10.0 mph 20.0 mph 54 % 0.00 in 237 W/m2
19:03 64.8 °F 48.2 °F 30.03 in WNW 11.0 mph 20.0 mph 55 % 0.00 in 209 W/m2
19:07 64.6 °F 48.0 °F 30.03 in WNW 12.0 mph 21.0 mph 55 % 0.00 in 193 W/m2
19:12 64.4 °F 48.4 °F 30.03 in WNW 12.0 mph 23.0 mph 56 % 0.00 in 178 W/m2
19:17 64.2 °F 48.2 °F 30.03 in West 12.0 mph 24.0 mph 56 % 0.00 in 160 W/m2
19:22 63.9 °F 48.3 °F 30.03 in West 12.0 mph 24.0 mph 57 % 0.00 in 148 W/m2
19:27 63.7 °F 48.6 °F 30.03 in West 12.0 mph 21.0 mph 58 % 0.00 in 137 W/m2
19:32 63.5 °F 48.5 °F 30.03 in WNW 10.0 mph 21.0 mph 58 % 0.00 in 127 W/m2
19:37 63.3 °F 48.7 °F 30.03 in WNW 10.0 mph 16.0 mph 59 % 0.00 in 113 W/m2
19:42 63.3 °F 49.2 °F 30.03 in WNW 9.0 mph 15.0 mph 60 % 0.00 in 98 W/m2
19:47 63.1 °F 49.0 °F 30.04 in WNW 8.0 mph 18.0 mph 60 % 0.00 in 88 W/m2
19:52 63.0 °F 48.9 °F 30.04 in WNW 9.0 mph 18.0 mph 60 % 0.00 in 74 W/m2
19:57 62.4 °F 48.8 °F 30.04 in WNW 8.0 mph 15.0 mph 61 % 0.00 in 65 W/m2
20:02 62.1 °F 48.9 °F 30.04 in WNW 8.0 mph 21.0 mph 62 % 0.00 in 42 W/m2
20:07 61.7 °F 48.5 °F 30.04 in WNW 9.0 mph 21.0 mph 62 % 0.00 in 23 W/m2
20:12 61.3 °F 48.6 °F 30.04 in WNW 8.0 mph 16.0 mph 63 % 0.00 in 21 W/m2
20:17 61.0 °F 48.3 °F 30.05 in West 7.0 mph 15.0 mph 63 % 0.00 in 16 W/m2
20:22 60.6 °F 48.4 °F 30.05 in West 8.0 mph 15.0 mph 64 % 0.00 in 14 W/m2
20:27 60.3 °F 48.4 °F 30.05 in West 8.0 mph 13.0 mph 65 % 0.00 in 14 W/m2
20:32 60.1 °F 48.7 °F 30.05 in West 8.0 mph 13.0 mph 66 % 0.00 in 12 W/m2
20:37 59.7 °F 48.7 °F 30.05 in West 7.0 mph 14.0 mph 67 % 0.00 in 11 W/m2
20:42 59.4 °F 48.8 °F 30.05 in West 8.0 mph 14.0 mph 68 % 0.00 in 9 W/m2
20:52 58.8 °F 48.7 °F 30.06 in WNW 8.0 mph 15.0 mph 69 % 0.00 in 5 W/m2
20:57 58.6 °F 48.9 °F 30.06 in WNW 8.0 mph 15.0 mph 70 % 0.00 in 0 W/m2
21:07 58.3 °F 48.9 °F 30.06 in WNW 8.0 mph 14.0 mph 71 % 0.00 in 0 W/m2
21:12 58.1 °F 48.7 °F 30.06 in WNW 8.0 mph 13.0 mph 71 % 0.00 in 0 W/m2
21:18 57.9 °F 48.6 °F 30.06 in WNW 8.0 mph 13.0 mph 71 % 0.00 in 0 W/m2
21:23 57.7 °F 48.8 °F 30.06 in WNW 8.0 mph 14.0 mph 72 % 0.00 in 0 W/m2
21:28 57.6 °F 48.6 °F 30.06 in WNW 8.0 mph 14.0 mph 72 % 0.00 in 0 W/m2
21:33 57.4 °F 48.8 °F 30.06 in WNW 7.0 mph 14.0 mph 73 % 0.00 in 0 W/m2
21:38 57.2 °F 48.6 °F 30.07 in WNW 7.0 mph 13.0 mph 73 % 0.00 in 0 W/m2
21:43 57.0 °F 48.8 °F 30.07 in WNW 8.0 mph 13.0 mph 74 % 0.00 in 0 W/m2
21:48 56.8 °F 48.6 °F 30.07 in WNW 7.0 mph 13.0 mph 74 % 0.00 in 0 W/m2
21:53 56.7 °F 48.8 °F 30.07 in WNW 7.0 mph 11.0 mph 75 % 0.00 in 0 W/m2
21:58 56.5 °F 48.6 °F 30.07 in WNW 6.0 mph 10.0 mph 75 % 0.00 in 0 W/m2
22:03 56.3 °F 48.8 °F 30.07 in WNW 6.0 mph 11.0 mph 76 % 0.00 in 0 W/m2
22:08 55.9 °F 48.5 °F 30.07 in West 5.0 mph 11.0 mph 76 % 0.00 in 0 W/m2
22:13 55.6 °F 48.5 °F 30.07 in West 6.0 mph 9.0 mph 77 % 0.00 in 0 W/m2
22:18 55.4 °F 48.3 °F 30.08 in West 6.0 mph 9.0 mph 77 % 0.00 in 0 W/m2
22:23 55.2 °F 48.5 °F 30.08 in WNW 5.0 mph 10.0 mph 78 % 0.00 in 0 W/m2
22:28 55.0 °F 48.6 °F 30.08 in West 5.0 mph 10.0 mph 79 % 0.00 in 0 W/m2
22:33 54.9 °F 48.5 °F 30.08 in West 5.0 mph 10.0 mph 79 % 0.00 in 0 W/m2
22:38 54.9 °F 48.8 °F 30.08 in West 5.0 mph 10.0 mph 80 % 0.00 in 0 W/m2
22:43 54.7 °F 48.6 °F 30.08 in WNW 5.0 mph 9.0 mph 80 % 0.00 in 0 W/m2
22:48 54.7 °F 49.0 °F 30.08 in West 5.0 mph 9.0 mph 81 % 0.00 in 0 W/m2
22:53 54.3 °F 48.6 °F 30.08 in West 5.0 mph 8.0 mph 81 % 0.00 in 0 W/m2
22:58 54.3 °F 48.6 °F 30.08 in WNW 5.0 mph 8.0 mph 81 % 0.00 in 0 W/m2
23:03 54.1 °F 48.8 °F 30.09 in WNW 4.0 mph 8.0 mph 82 % 0.00 in 0 W/m2
23:08 54.0 °F 48.6 °F 30.09 in WNW 3.0 mph 7.0 mph 82 % 0.00 in 0 W/m2
23:13 54.0 °F 48.9 °F 30.09 in WNW 2.0 mph 5.0 mph 83 % 0.00 in 0 W/m2
23:18 54.0 °F 48.9 °F 30.09 in WNW 2.0 mph 5.0 mph 83 % 0.00 in 0 W/m2
23:23 54.0 °F 48.9 °F 30.09 in WNW 1.0 mph 4.0 mph 83 % 0.00 in 0 W/m2
23:28 53.8 °F 48.7 °F 30.09 in WNW 1.0 mph 4.0 mph 83 % 0.00 in 0 W/m2
23:33 53.4 °F 48.4 °F 30.09 in Calm   2.0 mph 83 % 0.00 in 0 W/m2
23:38 53.2 °F 48.2 °F 30.09 in Calm   2.0 mph 83 % 0.00 in 0 W/m2
23:43 53.1 °F 48.4 °F 30.09 in Calm   2.0 mph 84 % 0.00 in 0 W/m2
23:48 52.9 °F 48.2 °F 30.09 in Calm   1.0 mph 84 % 0.00 in 0 W/m2
23:53 52.5 °F 48.1 °F 30.09 in Calm   1.0 mph 85 % 0.00 in 0 W/m2
23:58 52.5 °F 48.5 °F 30.09 in Calm     86 % 0.00 in 0 W/m2
Delerius-Weather
Compliments of Weather Underground - 2.25 mb

Data updates at regular intervals.